Time;durP1;ratioP1;P1;durP2;ratioP2;P2;SDS_P1;SDS_P2;PMS_P1;PMS_P2;Temp;Humidity;BMP_temperature;BMP_pressure;BME280_temperature;BME280_humidity;BME280_pressure;Samples;Min_cycle;Max_cycle;Signal;HPM_P1;HPM_P2
2023/01/25 00:02:07;;;;;;;41.30;15.77;;;-0.70;99.90;;;;;;5135057;27;20072;-55
2023/01/25 00:04:34;;;;;;;35.88;14.98;;;-0.60;99.90;;;;;;5115353;27;20384;-53
2023/01/25 00:07:01;;;;;;;41.33;16.10;;;-0.70;99.90;;;;;;5144036;27;20042;-56
2023/01/25 00:09:27;;;;;;;31.60;15.00;;;-0.60;99.90;;;;;;5142522;27;20104;-54
2023/01/25 00:11:56;;;;;;;23.38;11.52;;;-0.60;99.90;;;;;;5138388;27;20042;-54
2023/01/25 00:14:23;;;;;;;33.97;15.48;;;-0.60;99.90;;;;;;5134394;27;20043;-53
2023/01/25 00:16:50;;;;;;;34.83;15.80;;;-0.60;99.90;;;;;;5142801;27;20039;-57
2023/01/25 00:19:17;;;;;;;37.42;17.05;;;-0.60;99.90;;;;;;5143352;27;20059;-52
2023/01/25 00:21:44;;;;;;;35.65;15.93;;;-0.50;99.90;;;;;;5138420;27;20076;-55
2023/01/25 00:24:13;;;;;;;35.55;14.75;;;-0.40;99.90;;;;;;5132196;27;20092;-53
2023/01/25 00:26:42;;;;;;;39.45;16.67;;;-0.40;99.90;;;;;;5138956;27;20488;-55
2023/01/25 00:29:12;;;;;;;35.78;16.20;;;-0.30;99.90;;;;;;5145769;27;20491;-54
2023/01/25 00:31:48;;;;;;;32.50;15.07;;;-0.30;99.90;;;;;;5111980;28;20096;-56
2023/01/25 00:34:24;;;;;;;34.38;14.75;;;-0.30;99.90;;;;;;5134874;27;20060;-53
2023/01/25 00:37:01;;;;;;;32.80;14.35;;;-0.40;99.90;;;;;;5116401;27;20039;-52
2023/01/25 00:39:53;;;;;;;33.92;15.35;;;-0.40;99.90;;;;;;5108997;27;20539;-56
2023/01/25 00:42:21;;;;;;;32.75;15.18;;;-0.50;99.90;;;;;;5117547;27;20055;-54
2023/01/25 00:44:48;;;;;;;39.70;15.50;;;-0.50;99.90;;;;;;5141742;27;20035;-52
2023/01/25 00:47:15;;;;;;;33.08;14.80;;;-0.40;99.90;;;;;;5101139;28;20039;-56
2023/01/25 00:49:43;;;;;;;33.53;14.48;;;-0.40;99.90;;;;;;5105249;28;20099;-52
2023/01/25 00:52:10;;;;;;;38.83;16.25;;;-0.40;99.90;;;;;;5112902;28;20046;-55
2023/01/25 00:54:37;;;;;;;33.38;15.35;;;-0.40;99.90;;;;;;5117476;28;20052;-54
2023/01/25 00:57:05;;;;;;;37.83;15.82;;;-0.40;99.90;;;;;;5108905;28;20048;-56
2023/01/25 00:59:33;;;;;;;39.92;16.38;;;-0.40;99.90;;;;;;5109052;27;20045;-56
2023/01/25 01:02:00;;;;;;;36.45;16.13;;;-0.30;99.90;;;;;;5115675;27;20515;-52
2023/01/25 01:04:28;;;;;;;;;;;-0.30;99.90;;;;;;5116732;27;20442;-52
2023/01/25 01:06:55;;;;;;;33.42;14.95;;;-0.20;99.90;;;;;;5131685;27;20331;-56
2023/01/25 01:09:23;;;;;;;35.42;15.60;;;-0.20;99.90;;;;;;5135047;27;20050;-54
2023/01/25 01:11:51;;;;;;;37.42;16.25;;;-0.20;99.90;;;;;;5114734;27;20043;-56
2023/01/25 01:14:19;;;;;;;34.75;16.30;;;-0.20;99.90;;;;;;5116627;27;20050;-56
2023/01/25 01:16:46;;;;;;;34.20;16.13;;;-0.20;99.90;;;;;;5116122;27;20051;-56
2023/01/25 01:19:13;;;;;;;31.58;16.33;;;-0.20;99.90;;;;;;5130142;27;20097;-54
2023/01/25 01:21:41;;;;;;;;;;;-0.10;99.90;;;;;;5113625;27;20080;-56
2023/01/25 01:24:09;;;;;;;38.22;16.30;;;-0.10;99.90;;;;;;5116960;27;19919;-57
2023/01/25 01:26:35;;;;;;;38.65;15.82;;;-0.10;99.90;;;;;;5116530;27;20594;-56
2023/01/25 01:29:02;;;;;;;36.60;16.92;;;-0.10;99.90;;;;;;5114126;27;20043;-56
2023/01/25 01:32:21;;;;;;;38.90;15.80;;;0.00;99.90;;;;;;5132198;22;20054;-62
2023/01/25 01:34:50;;;;;;;31.70;13.15;;;0.00;99.90;;;;;;5091374;28;20138;-62
2023/01/25 01:37:17;;;;;;;;;;;-0.10;99.90;;;;;;5115281;28;20119;-62
2023/01/25 01:39:44;;;;;;;25.50;12.32;;;-0.30;99.90;;;;;;5111235;28;19926;-62
2023/01/25 01:42:11;;;;;;;33.13;12.55;;;-0.40;99.90;;;;;;5114043;28;20042;-61
2023/01/25 01:44:48;;;;;;;30.67;12.65;;;-0.40;99.90;;;;;;5087921;28;20080;-62
2023/01/25 01:47:27;;;;;;;21.73;10.02;;;-0.50;99.90;;;;;;5096055;28;20564;-62
2023/01/25 01:50:05;;;;;;;34.17;12.30;;;-0.60;99.90;;;;;;5095301;28;20043;-62
2023/01/25 01:52:36;;;;;;;29.70;12.55;;;-0.70;99.90;;;;;;5092796;28;20474;-62
2023/01/25 01:55:11;;;;;;;36.25;14.80;;;-0.70;99.90;;;;;;5082649;28;20123;-62
2023/01/25 01:57:43;;;;;;;;;;;-0.80;99.90;;;;;;5075366;28;20048;-62
2023/01/25 02:00:19;;;;;;;28.20;12.75;;;-0.80;99.90;;;;;;5083093;28;19923;-62
2023/01/25 02:02:49;;;;;;;29.13;12.40;;;-0.80;99.90;;;;;;5086876;28;20687;-62
2023/01/25 02:05:26;;;;;;;30.23;13.75;;;-0.80;99.90;;;;;;5112387;28;20035;-62
2023/01/25 02:07:54;;;;;;;34.40;13.95;;;-0.80;99.90;;;;;;5093389;28;20123;-62
2023/01/25 02:10:24;;;;;;;28.35;14.32;;;-0.70;99.90;;;;;;5075154;28;20404;-62
2023/01/25 02:12:54;;;;;;;29.13;14.02;;;-0.70;99.90;;;;;;5074997;28;20051;-62
2023/01/25 02:15:22;;;;;;;38.67;14.18;;;-0.70;99.90;;;;;;5075432;28;20047;-62
2023/01/25 02:17:50;;;;;;;39.80;14.85;;;-0.80;99.90;;;;;;5098417;28;20047;-62
2023/01/25 02:20:19;;;;;;;37.30;14.10;;;-0.70;99.90;;;;;;5079392;28;20105;-62
2023/01/25 02:22:56;;;;;;;30.92;13.57;;;-0.80;99.90;;;;;;5073599;28;20424;-62
2023/01/25 02:25:22;;;;;;;29.77;11.88;;;-0.80;99.90;;;;;;5093057;28;20044;-61
2023/01/25 02:27:55;;;;;;;31.00;13.13;;;-0.80;99.90;;;;;;5094637;28;20044;-62
2023/01/25 02:30:22;;;;;;;32.10;14.23;;;-0.70;99.90;;;;;;5113017;28;20046;-62
2023/01/25 02:32:50;;;;;;;33.97;13.55;;;-0.70;99.90;;;;;;5107819;28;20081;-62
2023/01/25 02:35:22;;;;;;;32.33;13.32;;;-0.70;99.90;;;;;;5078994;28;20036;-62
2023/01/25 02:37:49;;;;;;;30.50;14.88;;;-0.70;99.90;;;;;;5076039;28;20818;-62
2023/01/25 02:40:17;;;;;;;31.48;14.05;;;-0.80;99.90;;;;;;5079469;28;20043;-62
2023/01/25 02:42:45;;;;;;;34.40;14.27;;;-0.70;99.90;;;;;;5073593;28;20040;-62
2023/01/25 02:45:16;;;;;;;30.88;13.13;;;-0.70;99.90;;;;;;5074190;28;20408;-62
2023/01/25 02:47:44;;;;;;;34.17;14.50;;;-0.70;99.90;;;;;;5076043;28;20040;-62
2023/01/25 02:50:11;;;;;;;25.05;11.65;;;-0.70;99.90;;;;;;5074347;28;20036;-62
2023/01/25 02:52:40;;;;;;;31.08;15.38;;;-0.70;99.90;;;;;;5091736;28;20044;-62
2023/01/25 02:55:08;;;;;;;29.63;13.38;;;-0.70;99.90;;;;;;5090382;28;20542;-62
2023/01/25 02:57:35;;;;;;;32.10;14.50;;;-0.60;99.90;;;;;;5091327;28;20451;-62
2023/01/25 03:00:04;;;;;;;30.98;14.07;;;-0.60;99.90;;;;;;5080891;28;20117;-62
2023/01/25 03:02:31;;;;;;;37.08;15.30;;;-0.60;99.90;;;;;;5073718;28;20080;-62
2023/01/25 03:04:58;;;;;;;;;;;-0.60;99.90;;;;;;5074582;28;20476;-62
2023/01/25 03:07:25;;;;;;;37.15;14.63;;;-0.60;99.90;;;;;;5080084;28;19959;-62
2023/01/25 03:09:51;;;;;;;34.50;15.93;;;-0.60;99.90;;;;;;5073485;28;20338;-62
2023/01/25 03:12:18;;;;;;;42.53;17.15;;;-0.50;99.90;;;;;;5073270;28;20097;-62
2023/01/25 03:14:45;;;;;;;42.78;16.92;;;-0.40;99.90;;;;;;5072993;28;20055;-62
2023/01/25 03:17:11;;;;;;;32.22;12.02;;;-0.40;99.90;;;;;;5074233;28;20044;-62
2023/01/25 03:19:38;;;;;;;35.30;16.20;;;-0.30;99.90;;;;;;5073692;28;20462;-62
2023/01/25 03:22:06;;;;;;;;;;;-0.30;99.90;;;;;;5094360;28;20454;-62
2023/01/25 03:24:33;;;;;;;41.05;16.42;;;-0.30;99.90;;;;;;5093456;28;20323;-62
2023/01/25 03:27:12;;;;;;;38.35;16.92;;;-0.30;99.90;;;;;;5093986;28;20842;-62
2023/01/25 03:30:01;;;;;;;33.35;14.98;;;-0.30;99.90;;;;;;5085566;28;20042;-62
2023/01/25 03:32:31;;;;;;;42.25;15.48;;;-0.40;99.90;;;;;;5093440;28;20067;-62
2023/01/25 03:35:04;;;;;;;30.75;14.63;;;-0.50;99.90;;;;;;5094142;28;20637;-62
2023/01/25 03:37:33;;;;;;;36.17;14.70;;;-0.50;99.90;;;;;;5084662;28;20451;-62
2023/01/25 03:40:00;;;;;;;32.85;14.52;;;-0.60;99.90;;;;;;5073509;28;20067;-62
2023/01/25 03:42:26;;;;;;;32.45;14.25;;;-0.60;99.90;;;;;;5073010;28;20036;-62
2023/01/25 03:44:56;;;;;;;36.13;14.07;;;-0.60;99.90;;;;;;5076027;28;20680;-62
2023/01/25 03:47:22;;;;;;;34.03;15.13;;;-0.60;99.90;;;;;;5093444;28;20043;-62
2023/01/25 03:49:50;;;;;;;40.22;16.02;;;-0.70;99.90;;;;;;5091997;28;20693;-62
2023/01/25 03:52:18;;;;;;;42.28;16.92;;;-0.60;99.90;;;;;;5092694;28;20039;-62
2023/01/25 03:54:46;;;;;;;36.80;15.70;;;-0.60;99.90;;;;;;5090205;28;20496;-62
2023/01/25 03:57:13;;;;;;;37.45;16.23;;;-0.60;99.90;;;;;;5073327;28;20054;-62
2023/01/25 03:59:50;;;;;;;36.42;16.80;;;-0.60;99.90;;;;;;5090754;28;20051;-62
2023/01/25 04:02:17;;;;;;;45.60;17.10;;;-0.60;99.90;;;;;;5092912;28;20143;-62
2023/01/25 04:04:43;;;;;;;40.42;16.92;;;-0.60;99.90;;;;;;5093712;28;20048;-62
2023/01/25 04:07:11;;;;;;;38.28;16.15;;;-0.50;99.90;;;;;;5069169;28;20036;-62
2023/01/25 04:09:39;;;;;;;47.78;16.65;;;-0.50;99.90;;;;;;5090557;28;20043;-62
2023/01/25 04:12:08;;;;;;;41.17;16.60;;;-0.50;99.90;;;;;;5077228;28;20059;-62
2023/01/25 04:14:37;;;;;;;41.40;16.30;;;-0.50;99.90;;;;;;5073415;28;20044;-62
2023/01/25 04:17:16;;;;;;;39.67;16.45;;;-0.50;99.90;;;;;;5084154;28;20414;-62
2023/01/25 04:20:12;;;;;;;41.05;17.83;;;-0.50;99.90;;;;;;5071659;28;20095;-62
2023/01/25 04:22:40;;;;;;;44.63;17.45;;;-0.50;99.90;;;;;;5094227;28;20032;-62
2023/01/25 04:25:08;;;;;;;40.67;16.25;;;-0.50;99.90;;;;;;5079373;28;20040;-62
2023/01/25 04:27:40;;;;;;;37.10;16.17;;;-0.50;99.90;;;;;;5073023;28;20047;-62
2023/01/25 04:30:11;;;;;;;47.25;17.00;;;-0.50;99.90;;;;;;5083612;28;20039;-62
2023/01/25 04:32:38;;;;;;;42.65;17.75;;;-0.50;99.90;;;;;;5084728;28;20781;-62
2023/01/25 04:35:19;;;;;;;41.55;16.23;;;-0.50;99.90;;;;;;5081338;28;20036;-62
2023/01/25 04:37:57;;;;;;;47.53;18.00;;;-0.50;99.90;;;;;;5086781;28;20147;-62
2023/01/25 04:40:28;;;;;;;45.20;16.35;;;-0.50;99.90;;;;;;5098109;28;20035;-62
2023/01/25 04:42:55;;;;;;;43.85;16.70;;;-0.50;99.90;;;;;;5095910;28;20040;-62
2023/01/25 04:45:24;;;;;;;48.42;17.92;;;-0.40;99.90;;;;;;5096696;28;20051;-62
2023/01/25 04:47:58;;;;;;;43.65;17.15;;;-0.50;99.90;;;;;;5085717;28;20040;-62
2023/01/25 04:50:26;;;;;;;43.00;17.50;;;-0.50;99.90;;;;;;5096209;28;20042;-62
2023/01/25 04:52:53;;;;;;;44.35;18.13;;;-0.50;99.90;;;;;;5112574;28;20059;-62
2023/01/25 04:55:21;;;;;;;42.90;16.83;;;-0.50;99.90;;;;;;5095354;28;20062;-62
2023/01/25 04:57:50;;;;;;;47.95;18.58;;;-0.40;99.90;;;;;;5098832;28;20526;-62
2023/01/25 05:00:18;;;;;;;40.85;16.60;;;-0.40;99.90;;;;;;5096423;28;20048;-62
2023/01/25 05:02:45;;;;;;;40.80;18.02;;;-0.40;99.90;;;;;;5067584;28;20432;-62
2023/01/25 05:05:12;;;;;;;;;;;-0.40;99.90;;;;;;5100138;28;20075;-62
2023/01/25 05:07:39;;;;;;;43.13;17.80;;;-0.40;99.90;;;;;;5113892;28;19919;-62
2023/01/25 05:10:08;;;;;;;37.50;16.60;;;-0.40;99.90;;;;;;5095409;28;20040;-62
2023/01/25 05:12:39;;;;;;;44.25;16.85;;;-0.50;99.90;;;;;;5091784;28;20055;-62
2023/01/25 05:15:06;;;;;;;44.13;18.08;;;-0.50;99.90;;;;;;5087321;28;20044;-62
2023/01/25 05:17:34;;;;;;;41.78;17.13;;;-0.50;99.90;;;;;;5076760;28;20044;-62
2023/01/25 05:20:01;;;;;;;45.85;18.33;;;-0.50;99.90;;;;;;5079261;28;20420;-62
2023/01/25 05:22:28;;;;;;;46.53;15.35;;;-0.50;99.90;;;;;;5075901;28;20044;-62
2023/01/25 05:24:57;;;;;;;44.63;17.52;;;-0.50;99.90;;;;;;5083571;28;20157;-62
2023/01/25 05:27:24;;;;;;;42.80;17.40;;;-0.50;99.90;;;;;;5095316;28;20048;-62
2023/01/25 05:29:55;;;;;;;39.50;15.90;;;-0.50;99.90;;;;;;5107377;28;20407;-62
2023/01/25 05:32:29;;;;;;;47.08;16.13;;;-0.50;99.90;;;;;;5112864;28;20126;-62
2023/01/25 05:34:57;;;;;;;37.65;15.23;;;-0.50;99.90;;;;;;5095003;28;20074;-62
2023/01/25 05:37:26;;;;;;;39.47;16.02;;;-0.50;99.90;;;;;;5100696;28;20047;-62
2023/01/25 05:39:59;;;;;;;37.28;15.73;;;-0.50;99.90;;;;;;5075706;28;20569;-62
2023/01/25 05:42:27;;;;;;;38.90;15.45;;;-0.60;99.90;;;;;;5074480;28;20040;-62
2023/01/25 05:44:54;;;;;;;41.08;16.70;;;-0.60;99.90;;;;;;5077020;28;20048;-62
2023/01/25 05:47:22;;;;;;;37.90;16.95;;;-0.60;99.90;;;;;;5085568;28;20046;-62
2023/01/25 05:49:49;;;;;;;46.58;17.95;;;-0.60;99.90;;;;;;5094207;28;20051;-62
2023/01/25 05:52:23;;;;;;;45.47;18.55;;;-0.60;99.90;;;;;;5092677;28;20082;-62
2023/01/25 05:54:50;;;;;;;49.95;18.55;;;-0.60;99.90;;;;;;5083656;28;20504;-62
2023/01/25 05:57:17;;;;;;;52.78;20.75;;;-0.70;99.90;;;;;;5093643;28;20047;-62
2023/01/25 05:59:44;;;;;;;44.72;16.65;;;-0.60;99.90;;;;;;5095538;28;20046;-62
2023/01/25 06:02:14;;;;;;;46.53;18.52;;;-0.70;99.90;;;;;;5109732;28;20441;-62
2023/01/25 06:04:42;;;;;;;52.20;18.55;;;-0.70;99.90;;;;;;5094975;28;20551;-62
2023/01/25 06:07:09;;;;;;;43.90;18.45;;;-0.70;99.90;;;;;;5079624;28;20055;-62
2023/01/25 06:09:36;;;;;;;46.22;17.65;;;-0.70;99.90;;;;;;5096871;28;20077;-62
2023/01/25 06:12:05;;;;;;;47.90;17.02;;;-0.80;99.90;;;;;;5075004;28;20506;-62
2023/01/25 06:14:32;;;;;;;48.88;18.60;;;-0.80;99.90;;;;;;5095308;28;20435;-62
2023/01/25 06:17:01;;;;;;;44.00;18.20;;;-0.90;99.90;;;;;;5094791;28;20526;-62
2023/01/25 06:19:30;;;;;;;52.67;19.98;;;-0.90;99.90;;;;;;5093873;28;20063;-62
2023/01/25 06:22:18;;;;;;;38.47;14.13;;;-1.00;99.90;;;;;;5091551;28;20065;-62
2023/01/25 06:24:45;;;;;;;33.08;13.07;;;-1.00;99.90;;;;;;5093420;28;20286;-62
2023/01/25 06:27:11;;;;;;;49.15;18.40;;;-1.00;99.90;;;;;;5095300;28;20040;-62
2023/01/25 06:29:38;;;;;;;46.25;16.55;;;-0.90;99.90;;;;;;5093030;28;20517;-62
2023/01/25 06:32:05;;;;;;;44.00;17.80;;;-0.90;99.90;;;;;;5092342;28;20101;-62
2023/01/25 06:34:32;;;;;;;43.38;18.20;;;-0.90;99.90;;;;;;5093628;28;20040;-62
2023/01/25 06:36:58;;;;;;;51.85;18.90;;;-0.90;99.90;;;;;;5077530;28;20545;-62
2023/01/25 06:39:25;;;;;;;51.50;19.35;;;-1.00;99.90;;;;;;5092930;28;20036;-62
2023/01/25 06:41:52;;;;;;;43.90;18.58;;;-0.90;99.90;;;;;;5094640;28;20096;-62
2023/01/25 06:44:18;;;;;;;56.08;19.92;;;-1.00;99.90;;;;;;5101848;28;20089;-62
2023/01/25 06:46:45;;;;;;;47.72;17.85;;;-1.00;99.90;;;;;;5106857;28;20035;-62
2023/01/25 06:49:12;;;;;;;48.97;18.17;;;-0.90;99.90;;;;;;5103366;28;20073;-62
2023/01/25 06:51:39;;;;;;;48.15;19.92;;;-0.90;99.90;;;;;;5109928;28;20438;-62
2023/01/25 06:54:05;;;;;;;45.40;19.02;;;-0.90;99.90;;;;;;5112400;28;20040;-62
2023/01/25 06:56:32;;;;;;;36.80;13.32;;;-0.90;99.90;;;;;;5112412;28;20104;-62
2023/01/25 06:58:59;;;;;;;37.42;13.98;;;-0.90;99.90;;;;;;5110127;28;20081;-62
2023/01/25 07:01:26;;;;;;;53.22;19.50;;;-0.90;99.90;;;;;;5092162;28;20044;-62
2023/01/25 07:03:55;;;;;;;;;;;-0.90;99.90;;;;;;5092428;28;20048;-62
2023/01/25 07:06:22;;;;;;;61.35;20.27;;;-0.90;99.90;;;;;;5098354;28;20257;-62
2023/01/25 07:08:49;;;;;;;52.17;19.40;;;-1.00;99.90;;;;;;5102049;28;20085;-62
2023/01/25 07:11:17;;;;;;;;;;;-1.00;99.90;;;;;;5101331;28;20028;-62
2023/01/25 07:13:45;;;;;;;56.35;20.52;;;-1.00;99.90;;;;;;5091635;28;20019;-62
2023/01/25 07:16:16;;;;;;;55.58;21.17;;;-1.00;99.90;;;;;;5092257;28;20048;-62
2023/01/25 07:18:43;;;;;;;49.95;18.77;;;-0.90;99.90;;;;;;5092038;28;20080;-62
2023/01/25 07:21:13;;;;;;;51.30;20.70;;;-1.00;99.90;;;;;;5092112;28;20044;-62
2023/01/25 07:23:40;;;;;;;46.97;19.42;;;-1.00;99.90;;;;;;5096502;28;20091;-61
2023/01/25 07:26:16;;;;;;;53.20;19.67;;;-1.00;99.90;;;;;;5091703;28;20127;-62
2023/01/25 07:28:45;;;;;;;56.78;19.67;;;-1.00;99.90;;;;;;5091374;28;20051;-62
2023/01/25 07:31:13;;;;;;;50.20;18.73;;;-1.00;99.90;;;;;;5097107;22;20047;-56
2023/01/25 07:33:40;;;;;;;53.45;20.17;;;-1.00;99.90;;;;;;5089097;28;20477;-57
2023/01/25 07:36:09;;;;;;;48.47;18.42;;;-0.90;99.90;;;;;;5091090;28;20039;-56
2023/01/25 07:38:36;;;;;;;45.28;17.35;;;-0.90;99.90;;;;;;5091656;28;20067;-56
2023/01/25 07:41:03;;;;;;;52.58;19.25;;;-0.90;99.90;;;;;;5082674;28;20086;-56
2023/01/25 07:43:30;;;;;;;48.75;19.60;;;-0.80;99.90;;;;;;5070888;28;20041;-57
2023/01/25 07:46:02;;;;;;;49.92;19.92;;;-0.80;99.90;;;;;;5053303;28;20047;-57
2023/01/25 07:48:31;;;;;;;45.80;18.10;;;-0.70;99.90;;;;;;5078702;28;20052;-56
2023/01/25 07:51:11;;;;;;;54.22;19.35;;;-0.80;99.90;;;;;;5074145;28;20041;-57
2023/01/25 07:53:40;;;;;;;51.95;20.50;;;-0.70;99.90;;;;;;5070622;28;20594;-56
2023/01/25 07:56:09;;;;;;;47.47;18.25;;;-0.60;99.90;;;;;;5070549;28;20063;-56
2023/01/25 07:58:36;;;;;;;52.63;20.08;;;-0.50;99.90;;;;;;5053361;28;20056;-54
2023/01/25 08:01:06;;;;;;;48.20;17.50;;;-0.40;99.90;;;;;;5070402;28;20049;-55
2023/01/25 08:03:34;;;;;;;48.10;19.42;;;-0.50;99.90;;;;;;5052628;28;20405;-53
2023/01/25 08:06:04;;;;;;;45.92;18.73;;;-0.50;99.90;;;;;;5071239;28;20051;-55
2023/01/25 08:08:36;;;;;;;48.25;18.42;;;-0.60;99.90;;;;;;5070588;28;20118;-55
2023/01/25 08:11:16;;;;;;;57.47;19.90;;;-0.60;99.90;;;;;;5071157;28;20093;-52
2023/01/25 08:13:46;;;;;;;47.35;18.90;;;-0.70;99.90;;;;;;5054972;28;20469;-56
2023/01/25 08:16:13;;;;;;;50.28;20.70;;;-0.90;99.90;;;;;;5071222;28;20033;-57
2023/01/25 08:18:40;;;;;;;44.85;18.50;;;-0.80;99.90;;;;;;5070720;28;20095;-58
2023/01/25 08:21:06;;;;;;;48.80;18.25;;;-0.80;99.90;;;;;;5070084;28;20033;-56
2023/01/25 08:23:34;;;;;;;43.78;17.15;;;-1.50;99.90;;;;;;5073915;28;20067;-57
2023/01/25 08:26:01;;;;;;;;;;;-0.70;99.90;;;;;;5071717;28;20094;-56
2023/01/25 08:28:28;;;;;;;46.25;19.00;;;-0.50;99.90;;;;;;5069157;28;19924;-55
2023/01/25 08:31:03;;;;;;;46.85;18.73;;;-0.40;99.90;;;;;;5066875;28;20037;-56
2023/01/25 08:33:29;;;;;;;49.47;19.25;;;-0.30;99.90;;;;;;5069070;28;20536;-53
2023/01/25 08:35:56;;;;;;;44.25;18.40;;;-0.30;99.90;;;;;;5068882;28;20032;-56
2023/01/25 08:38:23;;;;;;;53.10;19.73;;;-0.40;99.90;;;;;;5068820;28;20048;-54
2023/01/25 08:40:50;;;;;;;47.17;17.33;;;-0.70;99.90;;;;;;5071813;28;20047;-56
2023/01/25 08:43:17;;;;;;;44.63;18.17;;;-0.60;99.90;;;;;;5084538;28;20557;-53
2023/01/25 08:45:44;;;;;;;51.20;18.52;;;-0.60;99.90;;;;;;5090697;28;20044;-57
2023/01/25 08:48:14;;;;;;;43.88;18.00;;;-0.50;99.90;;;;;;5086964;28;20040;-56
2023/01/25 08:50:46;;;;;;;50.63;19.27;;;-0.50;99.90;;;;;;5069218;28;20056;-57
2023/01/25 08:53:12;;;;;;;43.33;19.50;;;-0.40;99.90;;;;;;5069184;28;20534;-56
2023/01/25 08:55:41;;;;;;;43.75;18.50;;;-0.60;99.90;;;;;;5069143;28;20044;-54
2023/01/25 08:58:12;;;;;;;55.25;20.60;;;-0.50;99.90;;;;;;5070795;28;20110;-54
2023/01/25 09:00:40;;;;;;;46.75;19.35;;;-0.30;99.90;;;;;;5070122;28;20045;-55
2023/01/25 09:03:07;;;;;;;46.15;19.40;;;-0.30;99.90;;;;;;5077877;28;20052;-56
2023/01/25 09:05:35;;;;;;;48.42;18.77;;;0.00;99.90;;;;;;5070394;28;20123;-56
2023/01/25 09:08:03;;;;;;;46.25;19.17;;;0.00;99.90;;;;;;5070519;28;20092;-57
2023/01/25 09:10:33;;;;;;;45.22;19.48;;;0.10;99.90;;;;;;5069674;28;20051;-54
2023/01/25 09:13:00;;;;;;;48.67;20.77;;;0.20;99.90;;;;;;5078890;28;20102;-54
2023/01/25 09:15:27;;;;;;;53.03;20.73;;;0.20;99.90;;;;;;5070197;28;20538;-57
2023/01/25 09:17:54;;;;;;;50.70;20.60;;;0.30;99.90;;;;;;5069878;28;20052;-56
2023/01/25 09:20:22;;;;;;;47.17;19.17;;;0.30;99.90;;;;;;5070439;28;20447;-56
2023/01/25 09:22:49;;;;;;;48.75;19.65;;;0.20;99.90;;;;;;5071791;28;20045;-56
2023/01/25 09:25:16;;;;;;;52.67;20.58;;;0.20;99.90;;;;;;5073269;28;20127;-53
2023/01/25 09:27:43;;;;;;;52.20;20.15;;;0.40;99.90;;;;;;5074177;28;20036;-57
2023/01/25 09:30:10;;;;;;;50.38;19.58;;;0.50;99.90;;;;;;5073499;28;20450;-57
2023/01/25 09:32:49;;;;;;;45.67;18.33;;;0.50;99.90;;;;;;5055762;28;20051;-54
2023/01/25 09:35:16;;;;;;;44.95;17.05;;;0.60;99.90;;;;;;5062956;28;20511;-56
2023/01/25 09:37:43;;;;;;;41.83;16.83;;;0.60;99.90;;;;;;5082085;28;20098;-57
2023/01/25 09:40:27;;;;;;;46.00;18.73;;;0.60;99.90;;;;;;5073538;28;20496;-54
2023/01/25 09:43:14;;;;;;;42.80;17.83;;;0.60;99.90;;;;;;5073579;28;20036;-57
2023/01/25 09:45:42;;;;;;;41.20;16.50;;;0.70;99.90;;;;;;5073970;28;20045;-58
2023/01/25 09:48:09;;;;;;;;;;;0.80;99.90;;;;;;5077978;28;20032;-58
2023/01/25 09:50:58;;;;;;;38.47;17.20;;;0.90;99.90;;;;;;5073490;28;19974;-53
2023/01/25 09:53:39;;;;;;;44.92;18.95;;;0.90;99.90;;;;;;5073030;28;20041;-56
2023/01/25 09:56:16;;;;;;;40.17;17.75;;;1.00;99.90;;;;;;5072358;28;20574;-55
2023/01/25 09:58:45;;;;;;;45.25;19.33;;;1.00;99.90;;;;;;5073506;28;20044;-57
2023/01/25 10:01:40;;;;;;;50.92;18.98;;;1.10;99.90;;;;;;5072766;28;20460;-58
2023/01/25 10:04:10;;;;;;;42.90;17.38;;;1.20;99.90;;;;;;5078179;28;20052;-57
2023/01/25 10:06:40;;;;;;;49.22;19.85;;;1.30;99.90;;;;;;5081526;28;20045;-58
2023/01/25 10:09:41;;;;;;;45.00;17.60;;;1.30;99.90;;;;;;5072955;28;20128;-55
2023/01/25 10:12:20;;;;;;;39.83;17.15;;;1.40;99.90;;;;;;5072907;28;20094;-58
2023/01/25 10:14:48;;;;;;;42.13;17.48;;;1.50;99.90;;;;;;5077352;28;20501;-57
2023/01/25 10:17:37;;;;;;;46.70;18.52;;;1.60;99.90;;;;;;5073059;28;20044;-56
2023/01/25 10:20:40;;;;;;;43.17;17.92;;;1.80;99.90;;;;;;5072477;28;20497;-57
2023/01/25 10:23:21;;;;;;;44.60;18.23;;;2.00;99.90;;;;;;5072129;28;20090;-58
2023/01/25 10:25:58;;;;;;;44.83;17.30;;;2.00;99.90;;;;;;5077558;28;20075;-57
2023/01/25 10:28:48;;;;;;;36.35;15.82;;;2.10;99.90;;;;;;5072867;28;20033;-55
2023/01/25 10:31:17;;;;;;;41.63;17.45;;;1.90;99.90;;;;;;5071926;28;20653;-54
2023/01/25 10:33:46;;;;;;;42.22;17.95;;;1.70;99.90;;;;;;5072481;28;20095;-53
2023/01/25 10:36:20;;;;;;;43.42;19.55;;;1.60;99.90;;;;;;5072071;28;20037;-56
2023/01/25 10:38:48;;;;;;;41.90;18.02;;;1.50;99.90;;;;;;5072594;28;20098;-55
2023/01/25 10:41:25;;;;;;;42.50;17.77;;;1.60;99.90;;;;;;5071790;28;20052;-55
2023/01/25 10:44:20;;;;;;;42.78;18.50;;;1.70;99.90;;;;;;5072546;28;20051;-52
2023/01/25 10:46:42;;;;;;;38.63;17.35;;;1.90;99.90;;;;;;5072516;28;20044;-54
2023/01/25 10:49:46;;;;;;;41.13;17.88;;;1.90;99.90;;;;;;5065590;28;20373;-55
2023/01/25 10:52:25;;;;;;;45.17;18.50;;;2.00;99.90;;;;;;5053550;28;20528;-56
2023/01/25 10:55:17;;;;;;;42.75;17.60;;;2.20;99.90;;;;;;5092444;28;20122;-57
2023/01/25 10:57:52;;;;;;;38.20;16.58;;;2.20;99.90;;;;;;5092845;28;20040;-56
2023/01/25 11:00:40;;;;;;;42.80;18.73;;;2.10;99.90;;;;;;5084057;28;20118;-54
2023/01/25 11:03:20;;;;;;;46.00;17.63;;;2.20;99.90;;;;;;5076361;28;20087;-56
2023/01/25 11:05:54;;;;;;;39.22;17.83;;;2.40;99.90;;;;;;5092060;28;20089;-57
2023/01/25 11:08:33;;;;;;;40.15;17.50;;;2.40;99.90;;;;;;5083439;28;20105;-56
2023/01/25 11:11:14;;;;;;;44.72;16.92;;;2.50;99.90;;;;;;5075156;28;20438;-55
2023/01/25 11:13:41;;;;;;;36.50;16.83;;;2.60;99.90;;;;;;5091653;28;20500;-57
2023/01/25 11:16:34;;;;;;;42.33;17.45;;;2.80;99.90;;;;;;5092158;28;20040;-54
2023/01/25 11:19:02;;;;;;;42.17;17.45;;;2.80;99.90;;;;;;5080707;28;20044;-56
2023/01/25 11:21:33;;;;;;;44.63;17.63;;;2.80;99.90;;;;;;5070305;28;20102;-57
2023/01/25 11:24:08;;;;;;;45.65;17.30;;;2.70;99.90;;;;;;5071697;28;20048;-58
2023/01/25 11:26:38;;;;;;;39.47;18.35;;;2.70;99.90;;;;;;5071558;28;20051;-55
2023/01/25 11:29:19;;;;;;;52.72;20.48;;;2.80;99.90;;;;;;5073152;28;20041;-56
2023/01/25 11:31:53;;;;;;;45.45;18.77;;;2.70;99.90;;;;;;5070992;28;20097;-55
2023/01/25 11:34:25;;;;;;;51.47;20.45;;;2.50;99.90;;;;;;5071047;28;20048;-57
2023/01/25 11:37:16;;;;;;;43.30;19.17;;;2.50;99.90;;;;;;5071382;28;20044;-54
2023/01/25 11:39:43;;;;;;;41.33;17.58;;;2.50;99.90;;;;;;5071221;28;20044;-56
2023/01/25 11:42:25;;;;;;;35.13;13.73;;;2.50;99.90;;;;;;5070965;28;20082;-56
2023/01/25 11:45:01;;;;;;;42.63;17.48;;;2.50;99.90;;;;;;5071032;28;20102;-57
2023/01/25 11:47:48;;;;;;;46.38;19.38;;;2.50;99.90;;;;;;5070906;28;20044;-56
2023/01/25 11:50:41;;;;;;;39.92;18.48;;;2.50;99.90;;;;;;5071572;28;20045;-56
2023/01/25 11:53:32;;;;;;;40.50;17.30;;;2.60;99.90;;;;;;5070589;28;20519;-56
2023/01/25 11:56:36;;;;;;;48.10;17.38;;;2.80;99.90;;;;;;5071159;28;20452;-56
2023/01/25 11:59:56;;;;;;;36.50;17.25;;;2.90;99.90;;;;;;5070697;28;20049;-56
2023/01/25 12:02:45;;;;;;;42.53;17.88;;;2.80;99.90;;;;;;5037774;28;20202;-57
2023/01/25 12:05:35;;;;;;;45.67;18.85;;;2.80;99.90;;;;;;5070788;28;20044;-56
2023/01/25 12:08:37;;;;;;;38.25;17.63;;;2.80;99.90;;;;;;5073094;28;20040;-55
2023/01/25 12:11:25;;;;;;;38.90;17.42;;;2.80;99.90;;;;;;5071472;28;20048;-55
2023/01/25 12:14:06;;;;;;;41.63;18.52;;;2.80;99.90;;;;;;5070818;28;20496;-55
2023/01/25 12:17:00;;;;;;;39.33;16.90;;;2.80;99.90;;;;;;5070780;28;20051;-55
2023/01/25 12:19:33;;;;;;;40.75;17.35;;;2.80;99.90;;;;;;5070237;28;20448;-57
2023/01/25 12:22:38;;;;;;;38.90;17.40;;;2.70;99.90;;;;;;5072818;28;20070;-57
2023/01/25 12:25:28;;;;;;;39.80;18.38;;;2.70;99.90;;;;;;5071080;28;20098;-56
2023/01/25 12:28:13;;;;;;;41.75;17.83;;;2.70;99.90;;;;;;5070553;28;20064;-56
2023/01/25 12:31:02;;;;;;;40.22;17.13;;;2.60;99.90;;;;;;5070956;28;20123;-57
2023/01/25 12:33:35;;;;;;;52.17;19.08;;;2.60;99.90;;;;;;5069921;28;20067;-53
2023/01/25 12:36:26;;;;;;;38.28;17.60;;;2.70;99.90;;;;;;5071127;28;20048;-55
2023/01/25 12:39:05;;;;;;;41.40;17.58;;;2.60;99.90;;;;;;5070634;28;20053;-55
2023/01/25 12:41:41;;;;;;;46.95;17.73;;;2.70;99.90;;;;;;5069926;28;20090;-56
2023/01/25 12:44:27;;;;;;;41.60;17.48;;;2.60;99.90;;;;;;5070955;28;20040;-55
2023/01/25 12:47:15;;;;;;;45.15;17.60;;;2.80;99.90;;;;;;5070465;28;20571;-53
2023/01/25 12:49:52;;;;;;;;;;;2.90;99.90;;;;;;5071067;28;20040;-55
2023/01/25 12:52:36;;;;;;;43.38;18.40;;;2.80;99.90;;;;;;5069484;28;19920;-55
2023/01/25 12:55:06;;;;;;;41.20;18.40;;;2.80;99.90;;;;;;5070481;28;20044;-56
2023/01/25 12:57:36;;;;;;;44.63;18.48;;;2.80;99.90;;;;;;5078295;28;20564;-56
2023/01/25 13:00:22;;;;;;;47.85;18.20;;;2.80;99.90;;;;;;5074588;28;20447;-56